createdAt,value
2022-09-25T16:41:52.058Z,16.03
2022-09-25T16:44:22.930Z,15.58
2022-09-25T16:46:57.374Z,15.32
2022-09-25T16:49:26.034Z,15.06
2022-09-25T16:51:55.569Z,14.82
2022-09-25T16:54:30.900Z,14.62
2022-09-25T16:57:00.102Z,14.40
2022-09-25T16:59:28.846Z,14.21
2022-09-25T17:02:18.645Z,14.05
2022-09-25T17:04:51.449Z,13.87
2022-09-25T17:07:20.137Z,13.72
2022-09-25T17:09:48.820Z,13.59
2022-09-25T17:12:23.014Z,13.47
2022-09-25T17:14:51.716Z,13.36
2022-09-25T17:17:22.149Z,13.27
2022-09-25T17:19:51.040Z,13.16
2022-09-25T17:22:19.529Z,13.05
2022-09-25T17:24:47.898Z,12.96
2022-09-25T17:27:17.302Z,12.87
2022-09-25T17:29:46.802Z,12.72
2022-09-25T17:32:17.660Z,12.59
2022-09-25T17:34:47.174Z,12.49
2022-09-25T17:37:15.639Z,12.38
2022-09-25T17:39:44.005Z,12.31
2022-09-25T17:42:12.999Z,12.23
2022-09-25T17:44:43.899Z,12.15
2022-09-25T17:47:12.675Z,12.08
2022-09-25T17:49:42.180Z,12.01
2022-09-25T17:52:16.970Z,11.93
2022-09-25T17:54:45.949Z,11.88
2022-09-25T17:57:14.430Z,11.80
2022-09-25T17:59:42.715Z,11.74
2022-09-25T18:02:16.814Z,11.68
2022-09-25T18:04:45.303Z,11.62
2022-09-25T18:07:15.526Z,11.58
2022-09-25T18:09:44.104Z,11.53
2022-09-25T18:12:12.385Z,11.49
2022-09-25T18:14:46.646Z,11.43
2022-09-25T18:17:16.015Z,11.37
2022-09-25T18:20:03.692Z,11.30
2022-09-25T18:22:32.110Z,11.25
2022-09-25T18:25:00.823Z,11.20
2022-09-25T18:27:33.194Z,11.17
2022-09-25T18:30:02.301Z,11.13
2022-09-25T18:32:31.814Z,11.10
2022-09-25T18:35:00.077Z,11.06
2022-09-25T18:37:28.723Z,11.04
2022-09-25T18:39:59.974Z,11.00
2022-09-25T18:42:28.762Z,10.96
2022-09-25T18:44:57.349Z,10.93
2022-09-25T18:47:27.983Z,10.91
2022-09-25T18:49:56.487Z,10.87
2022-09-25T18:52:24.896Z,10.84
2022-09-25T18:54:53.340Z,10.80
2022-09-25T18:57:21.880Z,10.78
2022-09-25T18:59:50.281Z,10.75
2022-09-25T19:02:24.263Z,10.71
2022-09-25T19:04:57.898Z,10.69
2022-09-25T19:07:29.142Z,10.67
2022-09-25T19:09:58.744Z,10.67
2022-09-25T19:12:27.125Z,10.65
2022-09-25T19:14:55.708Z,10.64
2022-09-25T19:17:24.288Z,10.62
2022-09-25T19:19:52.564Z,10.61
2022-09-25T19:22:21.930Z,10.58
2022-09-25T19:24:52.807Z,10.54
2022-09-25T19:27:21.489Z,10.52
2022-09-25T19:29:49.866Z,10.50
2022-09-25T19:32:19.167Z,10.51
2022-09-25T19:34:47.553Z,10.52
2022-09-25T19:37:16.162Z,10.52
2022-09-25T19:40:03.763Z,10.51
2022-09-25T19:42:34.011Z,10.52
2022-09-25T19:45:02.562Z,10.51
2022-09-25T19:47:32.009Z,10.48
2022-09-25T19:50:00.447Z,10.45
2022-09-25T19:52:29.031Z,10.38
2022-09-25T19:54:57.417Z,10.35
2022-09-25T19:57:25.642Z,10.31
2022-09-25T19:59:54.756Z,10.26
2022-09-25T20:02:23.232Z,10.21
2022-09-25T20:04:51.537Z,10.17
2022-09-25T20:07:20.221Z,10.16
2022-09-25T20:09:48.941Z,10.14
2022-09-25T20:12:17.190Z,10.15
2022-09-25T20:14:45.479Z,10.15
2022-09-25T20:17:13.807Z,10.15
2022-09-25T20:19:42.061Z,10.16
2022-09-25T20:22:10.594Z,10.16
2022-09-25T20:24:38.954Z,10.15
2022-09-25T20:27:07.894Z,10.16
2022-09-25T20:29:36.242Z,10.17
2022-09-25T20:32:04.519Z,10.16
2022-09-25T20:34:32.795Z,10.15
2022-09-25T20:37:01.069Z,10.14
2022-09-25T20:39:29.921Z,10.15
2022-09-25T20:41:59.261Z,10.15
2022-09-25T20:44:27.689Z,10.16
2022-09-25T20:46:56.017Z,10.14
2022-09-25T20:49:24.602Z,10.15
2022-09-25T20:51:53.543Z,10.16
2022-09-25T20:54:25.581Z,10.16
2022-09-25T20:56:54.652Z,10.17
2022-09-25T20:59:23.475Z,10.17
2022-09-25T21:01:52.078Z,10.17
2022-09-25T21:04:20.508Z,10.18
2022-09-25T21:06:49.141Z,10.19
2022-09-25T21:09:23.750Z,10.20
2022-09-25T21:11:53.657Z,10.21
2022-09-25T21:14:28.354Z,10.23
2022-09-25T21:16:57.220Z,10.24
2022-09-25T21:19:27.212Z,10.26
2022-09-25T21:21:55.954Z,10.27
2022-09-25T21:24:24.534Z,10.29
2022-09-25T21:26:53.518Z,10.31
2022-09-25T21:29:22.015Z,10.33
2022-09-25T21:31:51.077Z,10.35
2022-09-25T21:34:20.066Z,10.39
2022-09-25T21:36:49.213Z,10.42
2022-09-25T21:39:20.861Z,10.45
2022-09-25T21:41:50.175Z,10.47
2022-09-25T21:44:24.887Z,10.48
2022-09-25T21:46:53.585Z,10.51
2022-09-25T21:49:22.650Z,10.52
2022-09-25T21:51:51.280Z,10.53
2022-09-25T21:54:21.049Z,10.55
2022-09-25T21:56:49.530Z,10.57
2022-09-25T21:59:18.050Z,10.60
2022-09-25T22:01:47.042Z,10.62
2022-09-25T22:04:15.793Z,10.64
2022-09-25T22:06:47.270Z,10.65
2022-09-25T22:09:19.222Z,10.66
2022-09-25T22:11:49.170Z,10.68
2022-09-25T22:14:19.777Z,10.70
2022-09-25T22:16:50.922Z,10.72
2022-09-25T22:19:25.230Z,10.74
2022-09-25T22:21:56.007Z,10.76
2022-09-25T22:24:24.913Z,10.77
2022-09-25T22:26:54.541Z,10.77
2022-09-25T22:29:24.147Z,10.77
2022-09-25T22:31:52.610Z,10.77
2022-09-25T22:34:26.847Z,10.77
2022-09-25T22:36:59.790Z,10.76
2022-09-25T22:39:30.770Z,10.74
2022-09-25T22:41:59.458Z,10.71
2022-09-25T22:44:28.282Z,10.70
2022-09-25T22:46:57.732Z,10.68
2022-09-25T22:49:26.164Z,10.66
2022-09-25T22:51:54.507Z,10.64
2022-09-25T22:54:23.211Z,10.63
2022-09-25T22:56:53.105Z,10.63
2022-09-25T22:59:21.485Z,10.63
2022-09-25T23:01:53.648Z,10.63
2022-09-25T23:04:22.950Z,10.62
2022-09-25T23:06:52.439Z,10.60
2022-09-25T23:09:23.127Z,10.58
2022-09-25T23:11:53.106Z,10.56
2022-09-25T23:14:28.785Z,10.55
2022-09-25T23:16:57.995Z,10.52
2022-09-25T23:19:27.148Z,10.51
2022-09-25T23:21:55.560Z,10.51
2022-09-25T23:24:24.931Z,10.51
2022-09-25T23:26:53.517Z,10.51
2022-09-25T23:29:22.718Z,10.51
2022-09-25T23:31:51.495Z,10.53
2022-09-25T23:34:20.285Z,10.53
2022-09-25T23:36:48.805Z,10.53
2022-09-25T23:39:19.569Z,10.52
2022-09-25T23:41:48.011Z,10.52
2022-09-25T23:44:16.873Z,10.52
2022-09-25T23:46:45.343Z,10.52
2022-09-25T23:49:15.135Z,10.53
2022-09-25T23:51:44.158Z,10.55
2022-09-25T23:54:13.015Z,10.57
2022-09-25T23:56:41.834Z,10.58
2022-09-25T23:59:12.132Z,10.60
